Trantlebeg, United Kingdom

8:17 PM GMT on December 08, 2016 (GMT +0000)
Strathy | | Change Station

Elev 100 ft 58.55 °N, 3.99 °W | Updated 2 minutes ago

Clear
Clear
48.6 °F
Feels Like 46 °F
N
6.0
Wind Variable Wind from SSW
Gusts 11.0 mph

Today
High -- | Low -- °F
--% Chance of Precip.
Yesterday
High -- | Low -- °F
Precip. -- in
Pressure 30.01 in
Visibility -9999.0 miles
Clouds
Windchill 46 °F
Dew Point 44 °F
Humidity 83%
Rainfall 0.00 in
Snow Depth Not available.
8:50 AM 3:24 PM
Waxing Gibbous, 66% visible
METAR EGPC 081950Z 24012KT CAVOK 10/06 Q1016
Pressure 30.01 in
Visibility -9999.0 miles
Clouds
Windchill 46 °F
Dew Point 44 °F
Humidity 83%
Rainfall 0.00 in
Snow Depth Not available.
8:50 AM 3:24 PM
Waxing Gibbous, 66% visible
METAR EGPC 081950Z 24012KT CAVOK 10/06 Q1016

10-Day Weather Forecast

×

Almanac

Astronomy

Dec. 08, 2016 Rise Set
Actual Time
Civil Twilight
Nautical Twilight
Astronomical Twilight
Moon
Length of Visible Light
Length of Day
Tomorrow will be .
, % of the Moon is Illuminated

Today's Extremes

Country Highs Country Lows

Community

WunderPhotos

Upload Photos

1,956,277 photos uploaded!

WunderBlog® & News

Nearby

Air Quality

  Air Quality AQ Index Pollutant
Not available.

Snow Depth

Station Depth Elevation

Earthquake Activity

City Distance Mag. Time & Date
Minimum magnitude displayed is 2.5.

Coastal Water Temperatures

Place Temperature

Stations

Nearby Weather Stations

Station Location Temp. Windchill Dew Point Humidity Wind Precip. Elev Updated Type